Time,TemperatureF,DewpointF,PressureIn,WindDirection,WindDirectionDegrees,WindSpeedMPH,WindSpeedGustMPH,Humidity,HourlyPrecipIn,Conditions,Clouds,dailyrainin,SolarRadiationWatts/m^2,SoftwareType,DateUTC
2013-01-24 00:00:00,9.9,5.8,30.21,WNW,283,0.0,0.0,83,0.00,,,0.00,0.0,WUHU216DAVISVP2,2013-01-24 05:00:00,
2013-01-24 00:01:00,9.9,5.8,30.21,WNW,283,0.0,0.0,83,0.00,,,0.00,0.0,WUHU216DAVISVP2,2013-01-24 05:01:00,
2013-01-24 00:02:00,9.9,5.8,30.21,WNW,283,0.0,0.0,83,0.00,,,0.00,0.0,WUHU216DAVISVP2,2013-01-24 05:02:00,
2013-01-24 00:03:00,9.9,5.8,30.21,WNW,283,0.0,0.0,83,0.00,,,0.00,0.0,WUHU216DAVISVP2,2013-01-24 05:03:00,
2013-01-24 00:08:00,9.8,5.7,30.21,WNW,283,0.0,0.0,83,0.00,,,0.00,0.0,WUHU216DAVISVP2,2013-01-24 05:08:00,
2013-01-24 00:13:00,9.8,5.7,30.20,WNW,283,0.0,0.0,83,0.00,,,0.00,0.0,WUHU216DAVISVP2,2013-01-24 05:13:00,
2013-01-24 00:18:00,9.8,5.7,30.20,WNW,283,0.0,0.0,83,0.00,,,0.00,0.0,WUHU216DAVISVP2,2013-01-24 05:18:00,
2013-01-24 00:23:00,9.9,5.8,30.19,WNW,283,0.0,0.0,83,0.00,,,0.00,0.0,WUHU216DAVISVP2,2013-01-24 05:23:00,
2013-01-24 00:28:00,10.1,6.2,30.19,WNW,283,0.0,0.0,84,0.00,,,0.00,0.0,WUHU216DAVISVP2,2013-01-24 05:28:00,
2013-01-24 00:33:00,10.4,6.5,30.19,WNW,283,0.0,0.0,84,0.00,,,0.00,0.0,WUHU216DAVISVP2,2013-01-24 05:33:00,
2013-01-24 00:39:00,10.6,6.4,30.19,WNW,283,0.0,0.0,83,0.00,,,0.00,0.0,WUHU216DAVISVP2,2013-01-24 05:39:00,
2013-01-24 00:44:00,10.7,6.5,30.19,WNW,283,0.0,0.0,83,0.00,,,0.00,0.0,WUHU216DAVISVP2,2013-01-24 05:44:00,
2013-01-24 00:49:00,10.8,6.6,30.18,WNW,283,0.0,0.0,83,0.00,,,0.00,0.0,WUHU216DAVISVP2,2013-01-24 05:49:00,
2013-01-24 00:54:00,10.8,6.6,30.18,WNW,283,0.0,0.0,83,0.00,,,0.00,0.0,WUHU216DAVISVP2,2013-01-24 05:54:00,
2013-01-24 00:59:00,10.8,6.4,30.18,WNW,283,0.0,0.0,82,0.00,,,0.00,0.0,WUHU216DAVISVP2,2013-01-24 05:59:00,
2013-01-24 01:04:00,10.7,6.3,30.18,WNW,283,0.0,0.0,82,0.00,,,0.00,0.0,WUHU216DAVISVP2,2013-01-24 06:04:00,
2013-01-24 01:09:00,10.6,6.2,30.17,WNW,283,0.0,0.0,82,0.00,,,0.00,0.0,WUHU216DAVISVP2,2013-01-24 06:09:00,
2013-01-24 01:14:00,10.5,6.3,30.17,WNW,283,0.0,0.0,83,0.00,,,0.00,0.0,WUHU216DAVISVP2,2013-01-24 06:14:00,
2013-01-24 01:19:00,10.5,6.3,30.17,WNW,283,0.0,0.0,83,0.00,,,0.00,0.0,WUHU216DAVISVP2,2013-01-24 06:19:00,
2013-01-24 01:24:00,10.5,6.4,30.17,WNW,283,0.0,0.0,83,0.00,,,0.00,0.0,WUHU216DAVISVP2,2013-01-24 06:24:00,
2013-01-24 01:29:00,10.4,6.5,30.17,WNW,283,0.0,0.0,84,0.00,,,0.00,0.0,WUHU216DAVISVP2,2013-01-24 06:29:00,
2013-01-24 01:34:00,10.3,6.1,30.17,WNW,283,0.0,0.0,83,0.00,,,0.00,0.0,WUHU216DAVISVP2,2013-01-24 06:34:00,
2013-01-24 01:39:00,10.0,5.8,30.17,WNW,283,0.0,0.0,83,0.00,,,0.00,0.0,WUHU216DAVISVP2,2013-01-24 06:39:00,
2013-01-24 01:44:00,9.8,5.7,30.17,WNW,283,0.0,0.0,83,0.00,,,0.00,0.0,WUHU216DAVISVP2,2013-01-24 06:44:00,
2013-01-24 01:49:00,9.7,5.8,30.17,WNW,283,0.0,0.0,84,0.00,,,0.00,0.0,WUHU216DAVISVP2,2013-01-24 06:49:00,
2013-01-24 01:54:00,9.5,5.6,30.17,WNW,283,0.0,0.0,84,0.00,,,0.00,0.0,WUHU216DAVISVP2,2013-01-24 06:54:00,
2013-01-24 01:59:00,9.4,5.8,30.16,WNW,283,0.0,0.0,85,0.00,,,0.00,0.0,WUHU216DAVISVP2,2013-01-24 06:59:00,
2013-01-24 02:04:00,9.2,5.6,30.16,WNW,283,0.0,0.0,85,0.00,,,0.00,0.0,WUHU216DAVISVP2,2013-01-24 07:04:00,
2013-01-24 02:09:00,9.2,5.6,30.16,WNW,283,0.0,0.0,85,0.00,,,0.00,0.0,WUHU216DAVISVP2,2013-01-24 07:09:00,
2013-01-24 02:14:00,9.4,6.0,30.16,WNW,283,0.0,0.0,86,0.00,,,0.00,0.0,WUHU216DAVISVP2,2013-01-24 07:14:00,
2013-01-24 02:19:00,9.6,6.3,30.16,WNW,283,0.0,0.0,86,0.00,,,0.00,0.0,WUHU216DAVISVP2,2013-01-24 07:19:00,
2013-01-24 02:24:00,9.6,6.3,30.16,WNW,283,0.0,0.0,86,0.00,,,0.00,0.0,WUHU216DAVISVP2,2013-01-24 07:24:00,
2013-01-24 02:29:00,9.5,5.9,30.16,WNW,283,0.0,0.0,85,0.00,,,0.00,0.0,WUHU216DAVISVP2,2013-01-24 07:29:00,
2013-01-24 02:34:00,9.4,6.1,30.16,WNW,283,0.0,0.0,86,0.00,,,0.00,0.0,WUHU216DAVISVP2,2013-01-24 07:34:00,
2013-01-24 02:39:00,9.4,5.8,30.16,WNW,283,0.0,0.0,85,0.00,,,0.00,0.0,WUHU216DAVISVP2,2013-01-24 07:39:00,
2013-01-24 02:44:00,9.3,5.9,30.16,WNW,283,0.0,0.0,86,0.00,,,0.00,0.0,WUHU216DAVISVP2,2013-01-24 07:44:00,
2013-01-24 02:49:00,9.2,5.8,30.16,WNW,283,0.0,0.0,86,0.00,,,0.00,0.0,WUHU216DAVISVP2,2013-01-24 07:49:00,
2013-01-24 02:54:00,9.2,5.8,30.16,WNW,283,0.0,0.0,86,0.00,,,0.00,0.0,WUHU216DAVISVP2,2013-01-24 07:54:00,
2013-01-24 02:59:00,9.2,5.8,30.16,WNW,283,0.0,0.0,86,0.00,,,0.00,0.0,WUHU216DAVISVP2,2013-01-24 07:59:00,
2013-01-24 03:04:00,9.2,5.8,30.16,WNW,283,0.0,0.0,86,0.00,,,0.00,0.0,WUHU216DAVISVP2,2013-01-24 08:04:00,
2013-01-24 03:09:00,9.4,6.3,30.16,WNW,283,0.0,0.0,87,0.00,,,0.00,0.0,WUHU216DAVISVP2,2013-01-24 08:09:00,
2013-01-24 03:14:00,9.6,6.5,30.15,WNW,283,0.0,0.0,87,0.00,,,0.00,0.0,WUHU216DAVISVP2,2013-01-24 08:14:00,
2013-01-24 03:19:00,9.8,6.7,30.15,WNW,283,0.0,0.0,87,0.00,,,0.00,0.0,WUHU216DAVISVP2,2013-01-24 08:19:00,
2013-01-24 03:24:00,9.9,6.8,30.15,WNW,283,0.0,0.0,87,0.00,,,0.00,0.0,WUHU216DAVISVP2,2013-01-24 08:24:00,
2013-01-24 03:29:00,9.9,6.5,30.15,WNW,283,0.0,0.0,86,0.00,,,0.00,0.0,WUHU216DAVISVP2,2013-01-24 08:29:00,
2013-01-24 03:34:00,10.0,6.9,30.15,WNW,283,0.0,0.0,87,0.00,,,0.00,0.0,WUHU216DAVISVP2,2013-01-24 08:34:00,
2013-01-24 03:39:00,10.1,7.0,30.15,WNW,283,0.0,0.0,87,0.00,,,0.00,0.0,WUHU216DAVISVP2,2013-01-24 08:39:00,
2013-01-24 03:44:00,10.2,7.1,30.16,WNW,283,0.0,0.0,87,0.00,,,0.00,0.0,WUHU216DAVISVP2,2013-01-24 08:44:00,
2013-01-24 03:49:00,10.2,7.1,30.16,WNW,283,1.3,2.0,87,0.00,,,0.00,0.0,WUHU216DAVISVP2,2013-01-24 08:49:00,
2013-01-24 03:55:00,10.1,6.7,30.16,WNW,283,1.1,2.0,86,0.00,,,0.00,0.0,WUHU216DAVISVP2,2013-01-24 08:55:00,
2013-01-24 03:59:00,10.0,6.6,30.16,WNW,283,0.0,2.0,86,0.00,,,0.00,0.0,WUHU216DAVISVP2,2013-01-24 08:59:00,
2013-01-24 04:05:00,9.9,6.5,30.16,WNW,283,0.0,2.0,86,0.00,,,0.00,0.0,WUHU216DAVISVP2,2013-01-24 09:05:00,
2013-01-24 04:10:00,10.0,6.9,30.16,WNW,283,0.0,2.0,87,0.00,,,0.00,0.0,WUHU216DAVISVP2,2013-01-24 09:10:00,
2013-01-24 04:15:00,10.1,7.0,30.16,WNW,283,0.0,1.0,87,0.00,,,0.00,0.0,WUHU216DAVISVP2,2013-01-24 09:15:00,
2013-01-24 04:20:00,10.1,7.0,30.16,WNW,283,0.0,0.0,87,0.00,,,0.00,0.0,WUHU216DAVISVP2,2013-01-24 09:20:00,
2013-01-24 04:25:00,10.3,7.2,30.16,WNW,283,1.0,1.0,87,0.00,,,0.00,0.0,WUHU216DAVISVP2,2013-01-24 09:25:00,
2013-01-24 04:30:00,10.5,7.4,30.16,WNW,283,2.0,2.0,87,0.00,,,0.00,0.0,WUHU216DAVISVP2,2013-01-24 09:30:00,
2013-01-24 04:35:00,10.8,7.4,30.16,WNW,283,1.3,2.0,86,0.00,,,0.00,0.0,WUHU216DAVISVP2,2013-01-24 09:35:00,
2013-01-24 04:40:00,10.9,7.2,30.16,WNW,283,1.0,2.0,85,0.00,,,0.00,0.0,WUHU216DAVISVP2,2013-01-24 09:40:00,
2013-01-24 04:45:00,10.9,7.2,30.16,WNW,283,0.0,2.0,85,0.00,,,0.00,0.0,WUHU216DAVISVP2,2013-01-24 09:45:00,
2013-01-24 04:50:00,10.9,7.2,30.17,WNW,283,0.0,2.0,85,0.00,,,0.00,0.0,WUHU216DAVISVP2,2013-01-24 09:50:00,
2013-01-24 04:55:00,10.9,7.2,30.17,WNW,283,1.0,2.0,85,0.00,,,0.00,0.0,WUHU216DAVISVP2,2013-01-24 09:55:00,
2013-01-24 05:00:00,10.9,7.2,30.17,WNW,283,0.0,1.0,85,0.00,,,0.00,0.0,WUHU216DAVISVP2,2013-01-24 10:00:00,
2013-01-24 05:05:00,10.9,7.2,30.17,WNW,283,0.0,1.0,85,0.00,,,0.00,0.0,WUHU216DAVISVP2,2013-01-24 10:05:00,
2013-01-24 05:10:00,10.9,7.2,30.17,WNW,283,0.0,1.0,85,0.00,,,0.00,0.0,WUHU216DAVISVP2,2013-01-24 10:10:00,
2013-01-24 05:15:00,10.8,7.1,30.17,WNW,283,0.0,0.0,85,0.00,,,0.00,0.0,WUHU216DAVISVP2,2013-01-24 10:15:00,
2013-01-24 05:20:00,10.7,7.0,30.17,WNW,283,0.0,0.0,85,0.00,,,0.00,0.0,WUHU216DAVISVP2,2013-01-24 10:20:00,
2013-01-24 05:25:00,10.7,7.0,30.17,WNW,283,0.0,0.0,85,0.00,,,0.00,0.0,WUHU216DAVISVP2,2013-01-24 10:25:00,
2013-01-24 05:30:00,10.6,7.0,30.17,WNW,283,0.0,0.0,85,0.00,,,0.00,0.0,WUHU216DAVISVP2,2013-01-24 10:30:00,
2013-01-24 05:36:00,10.7,7.0,30.17,WNW,283,0.0,0.0,85,0.00,,,0.00,0.0,WUHU216DAVISVP2,2013-01-24 10:36:00,
2013-01-24 05:41:00,10.7,7.0,30.17,WNW,283,0.0,1.0,85,0.00,,,0.00,0.0,WUHU216DAVISVP2,2013-01-24 10:41:00,
2013-01-24 05:46:00,10.8,7.1,30.17,WNW,283,0.0,1.0,85,0.00,,,0.00,0.0,WUHU216DAVISVP2,2013-01-24 10:46:00,
2013-01-24 05:51:00,10.8,7.1,30.18,WNW,283,0.0,1.0,85,0.00,,,0.00,0.0,WUHU216DAVISVP2,2013-01-24 10:51:00,
2013-01-24 05:56:00,11.0,7.1,30.18,WNW,283,1.0,1.0,84,0.00,,,0.00,0.0,WUHU216DAVISVP2,2013-01-24 10:56:00,
2013-01-24 06:01:00,11.2,7.3,30.18,WNW,283,0.0,1.0,84,0.00,,,0.00,0.0,WUHU216DAVISVP2,2013-01-24 11:01:00,
2013-01-24 06:06:00,11.4,7.5,30.18,WNW,283,0.0,1.0,84,0.00,,,0.00,0.0,WUHU216DAVISVP2,2013-01-24 11:06:00,
2013-01-24 06:11:00,11.6,7.4,30.18,WNW,283,1.0,1.0,83,0.00,,,0.00,0.0,WUHU216DAVISVP2,2013-01-24 11:11:00,
2013-01-24 06:16:00,11.8,7.6,30.18,WNW,283,0.0,2.0,83,0.00,,,0.00,0.0,WUHU216DAVISVP2,2013-01-24 11:16:00,
2013-01-24 06:21:00,12.0,7.5,30.19,WNW,283,1.0,2.0,82,0.00,,,0.00,0.0,WUHU216DAVISVP2,2013-01-24 11:21:00,
2013-01-24 06:26:00,12.2,7.7,30.19,WNW,283,0.0,2.0,82,0.00,,,0.00,0.0,WUHU216DAVISVP2,2013-01-24 11:26:00,
2013-01-24 06:31:00,12.3,7.6,30.19,WNW,283,1.0,2.0,81,0.00,,,0.00,0.0,WUHU216DAVISVP2,2013-01-24 11:31:00,
2013-01-24 06:36:00,12.5,7.8,30.19,WNW,283,1.5,2.0,81,0.00,,,0.00,0.0,WUHU216DAVISVP2,2013-01-24 11:36:00,
2013-01-24 06:41:00,12.6,7.3,30.19,WNW,283,1.0,3.0,79,0.00,,,0.00,0.0,WUHU216DAVISVP2,2013-01-24 11:41:00,
2013-01-24 06:46:00,12.6,7.3,30.19,WNW,283,1.0,3.0,79,0.00,,,0.00,0.0,WUHU216DAVISVP2,2013-01-24 11:46:00,
2013-01-24 06:51:00,12.7,7.1,30.19,WNW,283,1.0,3.0,78,0.00,,,0.00,0.0,WUHU216DAVISVP2,2013-01-24 11:51:00,
2013-01-24 06:56:00,12.7,7.1,30.19,WNW,283,0.0,3.0,78,0.00,,,0.00,0.0,WUHU216DAVISVP2,2013-01-24 11:56:00,
2013-01-24 07:01:00,12.7,7.1,30.20,WNW,283,0.0,2.0,78,0.00,,,0.00,0.0,WUHU216DAVISVP2,2013-01-24 12:01:00,
2013-01-24 07:06:00,12.6,7.1,30.20,WNW,283,1.0,2.0,78,0.00,,,0.00,0.0,WUHU216DAVISVP2,2013-01-24 12:06:00,
2013-01-24 07:11:00,12.7,7.1,30.20,WNW,288,2.0,3.0,78,0.00,,,0.00,0.0,WUHU216DAVISVP2,2013-01-24 12:11:00,
2013-01-24 07:16:00,12.7,6.9,30.20,WNW,293,1.0,4.0,77,0.00,,,0.00,5.0,WUHU216DAVISVP2,2013-01-24 12:16:00,
2013-01-24 07:21:00,12.7,6.9,30.20,WNW,299,1.7,4.0,77,0.00,,,0.00,7.0,WUHU216DAVISVP2,2013-01-24 12:21:00,
2013-01-24 07:26:00,12.8,6.7,30.20,WNW,301,1.3,4.0,76,0.00,,,0.00,11.0,WUHU216DAVISVP2,2013-01-24 12:26:00,
2013-01-24 07:31:00,12.7,6.6,30.21,WNW,300,1.0,4.0,76,0.00,,,0.00,16.0,WUHU216DAVISVP2,2013-01-24 12:31:00,
2013-01-24 07:36:00,12.7,6.6,30.21,WNW,300,1.2,4.0,76,0.00,,,0.00,18.0,WUHU216DAVISVP2,2013-01-24 12:36:00,
2013-01-24 07:41:00,12.7,6.6,30.21,WNW,298,1.6,4.0,76,0.00,,,0.00,19.0,WUHU216DAVISVP2,2013-01-24 12:41:00,
2013-01-24 07:46:00,12.6,6.5,30.21,NNW,331,1.4,4.0,76,0.00,,,0.00,23.0,WUHU216DAVISVP2,2013-01-24 12:46:00,
2013-01-24 07:51:00,12.6,6.5,30.21,NNW,327,1.3,4.0,76,0.00,,,0.00,37.0,WUHU216DAVISVP2,2013-01-24 12:51:00,
2013-01-24 07:56:00,12.8,6.9,30.21,NW,307,2.2,5.0,77,0.00,,,0.00,67.0,WUHU216DAVISVP2,2013-01-24 12:56:00,
2013-01-24 08:01:00,13.4,7.3,30.21,WNW,285,4.0,6.0,76,0.00,,,0.00,83.0,WUHU216DAVISVP2,2013-01-24 13:01:00,
2013-01-24 08:06:00,13.9,7.4,30.21,NW,325,4.0,6.0,75,0.00,,,0.00,98.0,WUHU216DAVISVP2,2013-01-24 13:06:00,
2013-01-24 08:11:00,14.2,7.5,30.21,NW,326,5.0,8.0,74,0.00,,,0.00,109.0,WUHU216DAVISVP2,2013-01-24 13:11:00,
2013-01-24 08:16:00,14.5,7.8,30.22,NW,308,7.0,10.0,74,0.00,,,0.00,120.0,WUHU216DAVISVP2,2013-01-24 13:16:00,
2013-01-24 08:21:00,14.7,7.7,30.22,NW,318,3.1,10.0,73,0.00,,,0.00,142.0,WUHU216DAVISVP2,2013-01-24 13:21:00,
2013-01-24 08:26:00,14.9,7.5,30.22,WNW,291,5.0,10.0,72,0.00,,,0.00,111.0,WUHU216DAVISVP2,2013-01-24 13:26:00,
2013-01-24 08:31:00,15.0,7.3,30.22,NW,315,7.0,10.0,71,0.00,,,0.00,174.0,WUHU216DAVISVP2,2013-01-24 13:31:00,
2013-01-24 08:36:00,15.4,7.7,30.22,NNE,13,10.0,10.0,71,0.00,,,0.00,195.0,WUHU216DAVISVP2,2013-01-24 13:36:00,
2013-01-24 08:41:00,15.6,7.9,30.23,WNW,290,4.0,10.0,71,0.00,,,0.00,214.0,WUHU216DAVISVP2,2013-01-24 13:41:00,
2013-01-24 08:46:00,15.9,7.9,30.23,West,281,4.0,10.0,70,0.00,,,0.00,232.0,WUHU216DAVISVP2,2013-01-24 13:46:00,
2013-01-24 08:51:00,16.1,7.8,30.23,NW,320,2.8,10.0,69,0.00,,,0.00,251.0,WUHU216DAVISVP2,2013-01-24 13:51:00,
2013-01-24 08:56:00,16.4,8.4,30.23,NW,320,2.8,9.0,70,0.00,,,0.00,272.0,WUHU216DAVISVP2,2013-01-24 13:56:00,
2013-01-24 09:01:00,16.8,8.1,30.23,NNW,330,6.0,9.0,68,0.00,,,0.00,287.0,WUHU216DAVISVP2,2013-01-24 14:01:00,
2013-01-24 09:06:00,17.0,8.3,30.23,WNW,293,3.4,9.0,68,0.00,,,0.00,301.0,WUHU216DAVISVP2,2013-01-24 14:06:00,
2013-01-24 09:11:00,17.3,8.6,30.24,NW,316,2.3,8.0,68,0.00,,,0.00,315.0,WUHU216DAVISVP2,2013-01-24 14:11:00,
2013-01-24 09:16:00,17.3,7.9,30.24,NW,311,5.0,8.0,66,0.00,,,0.00,322.0,WUHU216DAVISVP2,2013-01-24 14:16:00,
2013-01-24 09:21:00,17.3,7.9,30.24,North,5,4.0,10.0,66,0.00,,,0.00,330.0,WUHU216DAVISVP2,2013-01-24 14:21:00,
2013-01-24 09:26:00,17.5,7.4,30.24,NNW,345,3.9,10.0,64,0.00,,,0.00,339.0,WUHU216DAVISVP2,2013-01-24 14:26:00,
2013-01-24 09:31:00,17.9,8.2,30.24,NW,304,4.0,10.0,65,0.00,,,0.00,346.0,WUHU216DAVISVP2,2013-01-24 14:31:00,
2013-01-24 09:36:00,17.9,7.1,30.24,NW,317,4.2,10.0,62,0.00,,,0.00,362.0,WUHU216DAVISVP2,2013-01-24 14:36:00,
2013-01-24 09:41:00,18.1,7.3,30.25,NW,325,4.2,10.0,62,0.00,,,0.00,373.0,WUHU216DAVISVP2,2013-01-24 14:41:00,
2013-01-24 09:46:00,18.5,7.3,30.25,NW,311,5.1,10.0,61,0.00,,,0.00,383.0,WUHU216DAVISVP2,2013-01-24 14:46:00,
2013-01-24 09:51:00,18.4,6.9,30.25,NNE,19,5.0,10.0,60,0.00,,,0.00,397.0,WUHU216DAVISVP2,2013-01-24 14:51:00,
2013-01-24 09:56:00,18.5,7.3,30.25,West,270,5.0,10.0,61,0.00,,,0.00,410.0,WUHU216DAVISVP2,2013-01-24 14:56:00,
2013-01-24 10:01:00,19.0,7.8,30.25,NNW,327,4.0,9.0,61,0.00,,,0.00,415.0,WUHU216DAVISVP2,2013-01-24 15:01:00,
2013-01-24 10:06:00,19.2,7.2,30.26,North,355,5.0,9.0,59,0.00,,,0.00,424.0,WUHU216DAVISVP2,2013-01-24 15:06:00,
2013-01-24 10:11:00,19.4,6.6,30.26,NNW,327,4.1,11.0,57,0.00,,,0.00,432.0,WUHU216DAVISVP2,2013-01-24 15:11:00,
2013-01-24 10:16:00,19.6,6.4,30.26,WNW,294,5.3,11.0,56,0.00,,,0.00,446.0,WUHU216DAVISVP2,2013-01-24 15:16:00,
2013-01-24 10:21:00,20.1,7.3,30.26,NW,313,4.0,11.0,57,0.00,,,0.00,450.0,WUHU216DAVISVP2,2013-01-24 15:21:00,
2013-01-24 10:26:00,20.2,6.6,30.26,WNW,290,7.0,11.0,55,0.00,,,0.00,462.0,WUHU216DAVISVP2,2013-01-24 15:26:00,
2013-01-24 10:31:00,20.3,6.3,30.26,NNW,333,4.2,12.0,54,0.00,,,0.00,471.0,WUHU216DAVISVP2,2013-01-24 15:31:00,
2013-01-24 10:36:00,20.4,5.9,30.27,NW,308,4.6,13.0,53,0.00,,,0.00,478.0,WUHU216DAVISVP2,2013-01-24 15:36:00,
2013-01-24 10:41:00,20.6,7.0,30.27,WNW,300,4.5,13.0,55,0.00,,,0.00,489.0,WUHU216DAVISVP2,2013-01-24 15:41:00,
2013-01-24 10:46:00,20.8,6.7,30.27,NW,309,7.0,13.0,54,0.00,,,0.00,489.0,WUHU216DAVISVP2,2013-01-24 15:46:00,
2013-01-24 10:51:00,20.8,5.9,30.27,NNW,338,9.0,13.0,52,0.00,,,0.00,496.0,WUHU216DAVISVP2,2013-01-24 15:51:00,
2013-01-24 10:56:00,21.1,5.7,30.27,NW,304,6.7,13.0,51,0.00,,,0.00,504.0,WUHU216DAVISVP2,2013-01-24 15:56:00,
2013-01-24 11:01:00,21.2,4.9,30.27,NNW,339,5.5,13.0,49,0.00,,,0.00,508.0,WUHU216DAVISVP2,2013-01-24 16:01:00,
2013-01-24 11:06:00,21.5,5.2,30.27,NNW,331,6.1,12.0,49,0.00,,,0.00,513.0,WUHU216DAVISVP2,2013-01-24 16:06:00,
2013-01-24 11:11:00,21.7,5.8,30.26,NNW,329,4.4,12.0,50,0.00,,,0.00,517.0,WUHU216DAVISVP2,2013-01-24 16:11:00,
2013-01-24 11:16:00,22.0,5.2,30.26,WNW,288,7.1,13.0,48,0.00,,,0.00,531.0,WUHU216DAVISVP2,2013-01-24 16:16:00,
2013-01-24 11:21:00,21.9,4.6,30.26,NNW,330,8.0,14.0,47,0.00,,,0.00,531.0,WUHU216DAVISVP2,2013-01-24 16:21:00,
2013-01-24 11:26:00,21.9,4.6,30.26,NW,322,5.7,15.0,47,0.00,,,0.00,538.0,WUHU216DAVISVP2,2013-01-24 16:26:00,
2013-01-24 11:31:00,22.2,4.9,30.26,NW,313,6.4,15.0,47,0.00,,,0.00,538.0,WUHU216DAVISVP2,2013-01-24 16:31:00,
2013-01-24 11:36:00,22.4,3.6,30.26,NNW,335,7.0,15.0,44,0.00,,,0.00,545.0,WUHU216DAVISVP2,2013-01-24 16:36:00,
2013-01-24 11:41:00,22.7,5.8,30.26,NNW,333,6.0,13.0,48,0.00,,,0.00,543.0,WUHU216DAVISVP2,2013-01-24 16:41:00,
2013-01-24 11:46:00,22.8,4.0,30.26,West,273,8.7,14.0,44,0.00,,,0.00,541.0,WUHU216DAVISVP2,2013-01-24 16:46:00,
2013-01-24 11:51:00,23.0,3.7,30.25,NW,306,6.0,14.0,43,0.00,,,0.00,568.0,WUHU216DAVISVP2,2013-01-24 16:51:00,
2013-01-24 11:56:00,23.1,2.7,30.26,North,350,8.0,15.0,41,0.00,,,0.00,566.0,WUHU216DAVISVP2,2013-01-24 16:56:00,
2013-01-24 12:01:00,23.4,1.3,30.26,NW,326,6.9,15.0,38,0.00,,,0.00,582.0,WUHU216DAVISVP2,2013-01-24 17:01:00,
2013-01-24 12:06:00,23.2,0.0,30.25,WNW,301,8.4,16.0,36,0.00,,,0.00,550.0,WUHU216DAVISVP2,2013-01-24 17:06:00,
2013-01-24 12:11:00,23.1,1.0,30.26,NNW,331,8.0,16.0,38,0.00,,,0.00,580.0,WUHU216DAVISVP2,2013-01-24 17:11:00,
2013-01-24 12:16:00,22.9,0.3,30.26,NNW,345,5.9,16.0,37,0.00,,,0.00,86.0,WUHU216DAVISVP2,2013-01-24 17:16:00,
2013-01-24 12:21:00,23.4,1.3,30.26,North,3,6.7,16.0,38,0.00,,,0.00,550.0,WUHU216DAVISVP2,2013-01-24 17:21:00,
2013-01-24 12:26:00,24.0,1.8,30.26,WNW,293,4.3,14.0,38,0.00,,,0.00,589.0,WUHU216DAVISVP2,2013-01-24 17:26:00,
2013-01-24 12:31:00,24.4,1.0,30.26,WNW,294,8.0,14.0,36,0.00,,,0.00,555.0,WUHU216DAVISVP2,2013-01-24 17:31:00,
2013-01-24 12:36:00,24.4,1.0,30.26,WNW,293,9.0,15.0,36,0.00,,,0.00,547.0,WUHU216DAVISVP2,2013-01-24 17:36:00,
2013-01-24 12:41:00,24.0,-0.6,30.26,NW,315,7.4,16.0,34,0.00,,,0.00,543.0,WUHU216DAVISVP2,2013-01-24 17:41:00,
2013-01-24 12:46:00,24.0,0.7,30.26,WNW,301,4.7,16.0,36,0.00,,,0.00,540.0,WUHU216DAVISVP2,2013-01-24 17:46:00,
2013-01-24 12:51:00,24.2,0.8,30.26,West,279,7.0,16.0,36,0.00,,,0.00,536.0,WUHU216DAVISVP2,2013-01-24 17:51:00,
2013-01-24 12:57:00,24.3,0.3,30.25,NW,312,8.0,16.0,35,0.00,,,0.00,533.0,WUHU216DAVISVP2,2013-01-24 17:57:00,
2013-01-24 13:02:00,24.7,1.3,30.26,NW,314,7.0,16.0,36,0.00,,,0.00,533.0,WUHU216DAVISVP2,2013-01-24 18:02:00,
2013-01-24 13:07:00,24.5,0.5,30.26,WSW,252,13.0,18.0,35,0.00,,,0.00,568.0,WUHU216DAVISVP2,2013-01-24 18:07:00,
2013-01-24 13:12:00,24.6,1.2,30.26,WNW,300,12.0,19.0,36,0.00,,,0.00,540.0,WUHU216DAVISVP2,2013-01-24 18:12:00,
2013-01-24 13:17:00,24.5,-0.7,30.26,WNW,298,8.9,19.0,33,0.00,,,0.00,545.0,WUHU216DAVISVP2,2013-01-24 18:17:00,
2013-01-24 13:22:00,24.4,-0.8,30.26,WNW,286,8.9,19.0,33,0.00,,,0.00,510.0,WUHU216DAVISVP2,2013-01-24 18:22:00,
2013-01-24 13:27:00,24.0,-0.6,30.26,WNW,283,6.6,26.0,34,0.00,,,0.00,504.0,WUHU216DAVISVP2,2013-01-24 18:27:00,
2013-01-24 13:32:00,24.7,1.3,30.26,WNW,282,12.0,26.0,36,0.00,,,0.00,543.0,WUHU216DAVISVP2,2013-01-24 18:32:00,
2013-01-24 13:37:00,24.7,0.7,30.26,West,277,11.5,26.0,35,0.00,,,0.00,592.0,WUHU216DAVISVP2,2013-01-24 18:37:00,
2013-01-24 13:42:00,24.7,0.7,30.26,WNW,283,11.0,22.0,35,0.00,,,0.00,563.0,WUHU216DAVISVP2,2013-01-24 18:42:00,
2013-01-24 13:47:00,24.4,1.0,30.26,WNW,290,10.0,22.0,36,0.00,,,0.00,524.0,WUHU216DAVISVP2,2013-01-24 18:47:00,
2013-01-24 13:52:00,24.7,1.3,30.27,WNW,286,8.9,22.0,36,0.00,,,0.00,506.0,WUHU216DAVISVP2,2013-01-24 18:52:00,
2013-01-24 13:57:00,25.2,2.9,30.27,West,270,8.0,18.0,38,0.00,,,0.00,519.0,WUHU216DAVISVP2,2013-01-24 18:57:00,
2013-01-24 14:02:00,25.3,1.8,30.27,WNW,291,6.1,18.0,36,0.00,,,0.00,510.0,WUHU216DAVISVP2,2013-01-24 19:02:00,
2013-01-24 14:07:00,24.9,1.5,30.27,WNW,284,16.0,21.0,36,0.00,,,0.00,315.0,WUHU216DAVISVP2,2013-01-24 19:07:00,
2013-01-24 14:12:00,24.8,0.8,30.27,WNW,296,9.1,21.0,35,0.00,,,0.00,357.0,WUHU216DAVISVP2,2013-01-24 19:12:00,
2013-01-24 14:17:00,24.7,0.7,30.27,WNW,295,6.9,21.0,35,0.00,,,0.00,454.0,WUHU216DAVISVP2,2013-01-24 19:17:00,
2013-01-24 14:24:00,24.9,2.1,30.27,NNW,327,10.0,19.0,37,0.00,,,0.00,362.0,WUHU216DAVISVP2,2013-01-24 19:24:00,
2013-01-24 14:29:00,25.1,1.7,30.27,North,360,7.0,16.0,36,0.00,,,0.00,396.0,WUHU216DAVISVP2,2013-01-24 19:29:00,
2013-01-24 14:34:00,25.0,0.3,30.28,West,278,7.0,15.0,34,0.00,,,0.00,373.0,WUHU216DAVISVP2,2013-01-24 19:34:00,
2013-01-24 14:39:00,24.4,0.4,30.28,West,262,10.0,16.0,35,0.00,,,0.00,329.0,WUHU216DAVISVP2,2013-01-24 19:39:00,
2013-01-24 14:44:00,24.7,0.3,30.28,NW,308,11.0,16.0,34,0.00,,,0.00,353.0,WUHU216DAVISVP2,2013-01-24 19:44:00,
2013-01-24 14:49:00,24.7,0.1,30.28,NW,314,7.5,17.0,34,0.00,,,0.00,350.0,WUHU216DAVISVP2,2013-01-24 19:49:00,
2013-01-24 14:54:00,24.9,0.4,30.29,NW,307,11.4,17.0,34,0.00,,,0.00,332.0,WUHU216DAVISVP2,2013-01-24 19:54:00,
2013-01-24 14:59:00,24.9,0.4,30.29,WNW,284,7.3,17.0,34,0.00,,,0.00,316.0,WUHU216DAVISVP2,2013-01-24 19:59:00,
2013-01-24 15:04:00,24.9,1.1,30.29,WNW,286,9.3,17.0,35,0.00,,,0.00,304.0,WUHU216DAVISVP2,2013-01-24 20:04:00,
2013-01-24 15:09:00,24.9,-0.4,30.29,NW,316,7.1,17.0,33,0.00,,,0.00,288.0,WUHU216DAVISVP2,2013-01-24 20:09:00,
2013-01-24 15:14:00,24.7,-0.6,30.29,NW,326,13.0,18.0,33,0.00,,,0.00,278.0,WUHU216DAVISVP2,2013-01-24 20:14:00,
2013-01-24 15:19:00,24.7,0.1,30.30,WNW,294,11.0,18.0,34,0.00,,,0.00,264.0,WUHU216DAVISVP2,2013-01-24 20:19:00,
2013-01-24 15:24:00,24.6,0.6,30.30,NNW,329,7.6,18.0,35,0.00,,,0.00,250.0,WUHU216DAVISVP2,2013-01-24 20:24:00,
2013-01-24 15:29:00,24.6,0.6,30.30,NW,308,8.1,18.0,35,0.00,,,0.00,237.0,WUHU216DAVISVP2,2013-01-24 20:29:00,
2013-01-24 15:34:00,24.7,0.7,30.31,WNW,302,7.9,18.0,35,0.00,,,0.00,218.0,WUHU216DAVISVP2,2013-01-24 20:34:00,
2013-01-24 15:39:00,24.6,1.2,30.31,West,274,10.8,18.0,36,0.00,,,0.00,202.0,WUHU216DAVISVP2,2013-01-24 20:39:00,
2013-01-24 15:44:00,24.5,0.5,30.31,WSW,245,11.0,18.0,35,0.00,,,0.00,185.0,WUHU216DAVISVP2,2013-01-24 20:44:00,
2013-01-24 15:50:00,24.3,0.9,30.32,NW,323,11.0,21.0,36,0.00,,,0.00,163.0,WUHU216DAVISVP2,2013-01-24 20:50:00,
2013-01-24 15:55:00,24.1,0.8,30.32,West,277,10.0,21.0,36,0.00,,,0.00,146.0,WUHU216DAVISVP2,2013-01-24 20:55:00,
2013-01-24 16:00:00,24.0,1.3,30.32,West,279,7.9,21.0,37,0.00,,,0.00,128.0,WUHU216DAVISVP2,2013-01-24 21:00:00,
2013-01-24 16:05:00,24.0,1.3,30.33,West,275,10.0,21.0,37,0.00,,,0.00,102.0,WUHU216DAVISVP2,2013-01-24 21:05:00,
2013-01-24 16:10:00,23.9,1.2,30.33,WNW,288,6.3,20.0,37,0.00,,,0.00,95.0,WUHU216DAVISVP2,2013-01-24 21:10:00,
2013-01-24 16:15:00,23.8,1.8,30.33,WNW,285,5.1,20.0,38,0.00,,,0.00,81.0,WUHU216DAVISVP2,2013-01-24 21:15:00,
2013-01-24 16:20:00,23.7,1.2,30.33,North,9,11.0,19.0,37,0.00,,,0.00,67.0,WUHU216DAVISVP2,2013-01-24 21:20:00,
2013-01-24 16:25:00,23.6,1.5,30.34,WNW,298,7.3,19.0,38,0.00,,,0.00,53.0,WUHU216DAVISVP2,2013-01-24 21:25:00,
2013-01-24 16:30:00,23.4,1.9,30.34,WNW,295,7.9,19.0,39,0.00,,,0.00,25.0,WUHU216DAVISVP2,2013-01-24 21:30:00,
2013-01-24 16:35:00,23.1,2.1,30.34,WNW,285,7.0,19.0,40,0.00,,,0.00,21.0,WUHU216DAVISVP2,2013-01-24 21:35:00,
2013-01-24 16:40:00,23.0,2.2,30.34,WNW,296,8.7,19.0,40,0.00,,,0.00,19.0,WUHU216DAVISVP2,2013-01-24 21:40:00,
2013-01-24 16:45:00,22.8,2.4,30.34,WNW,289,5.9,19.0,41,0.00,,,0.00,16.0,WUHU216DAVISVP2,2013-01-24 21:45:00,
2013-01-24 16:50:00,22.6,2.2,30.35,WNW,297,7.5,19.0,41,0.00,,,0.00,14.0,WUHU216DAVISVP2,2013-01-24 21:50:00,
2013-01-24 16:55:00,22.5,2.1,30.35,WNW,293,8.0,19.0,41,0.00,,,0.00,12.0,WUHU216DAVISVP2,2013-01-24 21:55:00,
2013-01-24 17:00:00,22.3,2.0,30.35,West,273,7.4,19.0,41,0.00,,,0.00,9.0,WUHU216DAVISVP2,2013-01-24 22:00:00,
2013-01-24 17:05:00,22.2,2.4,30.35,West,274,5.0,18.0,42,0.00,,,0.00,7.0,WUHU216DAVISVP2,2013-01-24 22:05:00,
2013-01-24 17:10:00,22.1,2.3,30.36,WSW,253,4.0,18.0,42,0.00,,,0.00,0.0,WUHU216DAVISVP2,2013-01-24 22:10:00,
2013-01-24 17:15:00,22.0,2.4,30.36,WNW,287,6.1,18.0,42,0.00,,,0.00,0.0,WUHU216DAVISVP2,2013-01-24 22:15:00,
2013-01-24 17:20:00,22.0,2.7,30.36,West,279,13.0,15.0,43,0.00,,,0.00,0.0,WUHU216DAVISVP2,2013-01-24 22:20:00,
2013-01-24 17:25:00,21.9,2.7,30.37,WNW,282,4.8,15.0,43,0.00,,,0.00,0.0,WUHU216DAVISVP2,2013-01-24 22:25:00,
2013-01-24 17:30:00,21.8,3.1,30.37,WSW,251,7.8,15.0,44,0.00,,,0.00,0.0,WUHU216DAVISVP2,2013-01-24 22:30:00,
2013-01-24 17:35:00,21.8,3.2,30.37,West,280,5.4,15.0,44,0.00,,,0.00,0.0,WUHU216DAVISVP2,2013-01-24 22:35:00,
2013-01-24 17:40:00,21.7,3.5,30.37,WSW,254,5.0,13.0,45,0.00,,,0.00,0.0,WUHU216DAVISVP2,2013-01-24 22:40:00,
2013-01-24 17:45:00,21.6,3.4,30.38,West,270,10.0,13.0,45,0.00,,,0.00,0.0,WUHU216DAVISVP2,2013-01-24 22:45:00,
2013-01-24 17:50:00,21.6,3.4,30.38,WNW,292,9.0,15.0,45,0.00,,,0.00,0.0,WUHU216DAVISVP2,2013-01-24 22:50:00,
2013-01-24 17:55:00,21.6,3.4,30.38,WNW,290,6.2,18.0,45,0.00,,,0.00,0.0,WUHU216DAVISVP2,2013-01-24 22:55:00,
2013-01-24 18:00:00,21.6,3.4,30.38,West,259,10.0,18.0,45,0.00,,,0.00,0.0,WUHU216DAVISVP2,2013-01-24 23:00:00,
2013-01-24 18:05:00,21.6,3.4,30.39,West,273,8.0,18.0,45,0.00,,,0.00,0.0,WUHU216DAVISVP2,2013-01-24 23:05:00,
2013-01-24 18:10:00,21.5,3.3,30.39,West,278,6.6,16.0,45,0.00,,,0.00,0.0,WUHU216DAVISVP2,2013-01-24 23:10:00,
2013-01-24 18:15:00,21.4,3.7,30.39,West,270,7.0,16.0,46,0.00,,,0.00,0.0,WUHU216DAVISVP2,2013-01-24 23:15:00,
2013-01-24 18:20:00,21.4,3.7,30.39,West,278,6.6,16.0,46,0.00,,,0.00,0.0,WUHU216DAVISVP2,2013-01-24 23:20:00,
2013-01-24 18:25:00,21.3,3.6,30.40,WNW,288,6.0,15.0,46,0.00,,,0.00,0.0,WUHU216DAVISVP2,2013-01-24 23:25:00,
2013-01-24 18:30:00,21.3,3.7,30.40,West,273,4.7,14.0,46,0.00,,,0.00,0.0,WUHU216DAVISVP2,2013-01-24 23:30:00,
2013-01-24 18:35:00,21.1,3.4,30.40,WNW,284,7.0,14.0,46,0.00,,,0.00,0.0,WUHU216DAVISVP2,2013-01-24 23:35:00,
2013-01-24 18:40:00,21.1,3.9,30.40,West,261,5.0,12.0,47,0.00,,,0.00,0.0,WUHU216DAVISVP2,2013-01-24 23:40:00,
2013-01-24 18:45:00,21.1,3.4,30.41,NNW,345,11.0,14.0,46,0.00,,,0.00,0.0,WUHU216DAVISVP2,2013-01-24 23:45:00,
2013-01-24 18:50:00,21.1,3.4,30.41,West,278,4.8,14.0,46,0.00,,,0.00,0.0,WUHU216DAVISVP2,2013-01-24 23:50:00,
2013-01-24 18:55:00,21.1,3.4,30.41,West,281,5.0,14.0,46,0.00,,,0.00,0.0,WUHU216DAVISVP2,2013-01-24 23:55:00,
2013-01-24 19:00:00,21.0,3.3,30.41,West,276,3.4,14.0,46,0.00,,,0.00,0.0,WUHU216DAVISVP2,2013-01-25 00:00:00,
2013-01-24 19:05:00,20.8,3.6,30.41,West,280,6.1,12.0,47,0.00,,,0.00,0.0,WUHU216DAVISVP2,2013-01-25 00:05:00,
2013-01-24 19:10:00,20.8,3.1,30.42,West,273,5.8,12.0,46,0.00,,,0.00,0.0,WUHU216DAVISVP2,2013-01-25 00:10:00,
2013-01-24 19:15:00,20.7,3.5,30.42,WSW,258,5.0,12.0,47,0.00,,,0.00,0.0,WUHU216DAVISVP2,2013-01-25 00:15:00,
2013-01-24 19:20:00,20.6,3.0,30.42,WNW,286,4.3,12.0,46,0.00,,,0.00,0.0,WUHU216DAVISVP2,2013-01-25 00:20:00,
2013-01-24 19:25:00,20.7,3.0,30.42,West,277,6.3,11.0,46,0.00,,,0.00,0.0,WUHU216DAVISVP2,2013-01-25 00:25:00,
2013-01-24 19:30:00,20.7,3.0,30.42,WNW,284,5.0,12.0,46,0.00,,,0.00,0.0,WUHU216DAVISVP2,2013-01-25 00:30:00,
2013-01-24 19:35:00,20.7,3.0,30.42,West,275,3.5,12.0,46,0.00,,,0.00,0.0,WUHU216DAVISVP2,2013-01-25 00:35:00,
2013-01-24 19:40:00,20.6,3.0,30.42,West,278,4.2,12.0,46,0.00,,,0.00,0.0,WUHU216DAVISVP2,2013-01-25 00:40:00,
2013-01-24 19:45:00,20.4,3.3,30.42,WNW,286,7.0,11.0,47,0.00,,,0.00,0.0,WUHU216DAVISVP2,2013-01-25 00:45:00,
2013-01-24 19:50:00,20.6,3.4,30.41,West,276,8.9,16.0,47,0.00,,,0.00,0.0,WUHU216DAVISVP2,2013-01-25 00:50:00,
2013-01-24 19:55:00,20.6,3.9,30.42,West,280,4.0,16.0,48,0.00,,,0.00,0.0,WUHU216DAVISVP2,2013-01-25 00:55:00,
2013-01-24 20:00:00,20.6,3.4,30.42,WNW,282,4.3,16.0,47,0.00,,,0.00,0.0,WUHU216DAVISVP2,2013-01-25 01:00:00,
2013-01-24 20:05:00,20.5,3.8,30.42,WNW,283,5.2,16.0,48,0.00,,,0.00,0.0,WUHU216DAVISVP2,2013-01-25 01:05:00,
2013-01-24 20:10:00,20.5,3.3,30.42,West,279,6.4,12.0,47,0.00,,,0.00,0.0,WUHU216DAVISVP2,2013-01-25 01:10:00,
2013-01-24 20:15:00,20.5,3.3,30.42,West,262,7.0,13.0,47,0.00,,,0.00,0.0,WUHU216DAVISVP2,2013-01-25 01:15:00,
2013-01-24 20:20:00,20.4,3.7,30.42,West,267,8.1,17.0,48,0.00,,,0.00,0.0,WUHU216DAVISVP2,2013-01-25 01:20:00,
2013-01-24 20:25:00,20.4,3.7,30.42,West,272,6.7,17.0,48,0.00,,,0.00,0.0,WUHU216DAVISVP2,2013-01-25 01:25:00,
2013-01-24 20:30:00,20.2,4.0,30.42,NW,319,11.0,17.0,49,0.00,,,0.00,0.0,WUHU216DAVISVP2,2013-01-25 01:30:00,
2013-01-24 20:35:00,20.2,4.0,30.42,West,277,4.8,17.0,49,0.00,,,0.00,0.0,WUHU216DAVISVP2,2013-01-25 01:35:00,
2013-01-24 20:40:00,20.2,4.0,30.42,West,259,8.0,13.0,49,0.00,,,0.00,0.0,WUHU216DAVISVP2,2013-01-25 01:40:00,
2013-01-24 20:45:00,20.1,3.9,30.42,West,266,6.5,13.0,49,0.00,,,0.00,0.0,WUHU216DAVISVP2,2013-01-25 01:45:00,
2013-01-24 20:50:00,20.0,3.8,30.42,West,275,5.9,13.0,49,0.00,,,0.00,0.0,WUHU216DAVISVP2,2013-01-25 01:50:00,
2013-01-24 20:55:00,19.8,4.1,30.42,WSW,253,9.0,13.0,50,0.00,,,0.00,0.0,WUHU216DAVISVP2,2013-01-25 01:55:00,
2013-01-24 21:00:00,19.8,4.1,30.42,West,274,4.3,11.0,50,0.00,,,0.00,0.0,WUHU216DAVISVP2,2013-01-25 02:00:00,
2013-01-24 21:05:00,19.7,4.0,30.42,West,272,4.8,12.0,50,0.00,,,0.00,0.0,WUHU216DAVISVP2,2013-01-25 02:05:00,
2013-01-24 21:10:00,19.8,4.1,30.42,WNW,286,12.0,14.0,50,0.00,,,0.00,0.0,WUHU216DAVISVP2,2013-01-25 02:10:00,
2013-01-24 21:15:00,19.8,4.1,30.42,West,270,7.1,14.0,50,0.00,,,0.00,0.0,WUHU216DAVISVP2,2013-01-25 02:15:00,
2013-01-24 21:20:00,19.7,3.5,30.42,West,265,5.9,14.0,49,0.00,,,0.00,0.0,WUHU216DAVISVP2,2013-01-25 02:20:00,
2013-01-24 21:25:00,19.7,4.0,30.42,WSW,252,9.0,15.0,50,0.00,,,0.00,0.0,WUHU216DAVISVP2,2013-01-25 02:25:00,
2013-01-24 21:30:00,19.7,3.5,30.42,West,269,4.5,15.0,49,0.00,,,0.00,0.0,WUHU216DAVISVP2,2013-01-25 02:30:00,
2013-01-24 21:35:00,19.6,3.9,30.42,West,267,6.2,15.0,50,0.00,,,0.00,0.0,WUHU216DAVISVP2,2013-01-25 02:35:00,
2013-01-24 21:40:00,19.5,3.8,30.42,West,281,8.0,15.0,50,0.00,,,0.00,0.0,WUHU216DAVISVP2,2013-01-25 02:40:00,
2013-01-24 21:45:00,19.4,3.7,30.42,West,261,10.0,15.0,50,0.00,,,0.00,0.0,WUHU216DAVISVP2,2013-01-25 02:45:00,
2013-01-24 21:50:00,19.4,3.7,30.42,West,278,3.9,15.0,50,0.00,,,0.00,0.0,WUHU216DAVISVP2,2013-01-25 02:50:00,
2013-01-24 21:55:00,19.3,3.6,30.42,West,270,6.0,13.0,50,0.00,,,0.00,0.0,WUHU216DAVISVP2,2013-01-25 02:55:00,
2013-01-24 22:00:00,19.2,3.5,30.42,West,269,7.0,13.0,50,0.00,,,0.00,0.0,WUHU216DAVISVP2,2013-01-25 03:00:00,
2013-01-24 22:05:00,19.1,3.4,30.42,West,275,4.0,12.0,50,0.00,,,0.00,0.0,WUHU216DAVISVP2,2013-01-25 03:05:00,
2013-01-24 22:10:00,19.1,3.4,30.42,WSW,257,10.0,13.0,50,0.00,,,0.00,0.0,WUHU216DAVISVP2,2013-01-25 03:10:00,
2013-01-24 22:15:00,19.1,3.0,30.42,West,277,4.7,14.0,49,0.00,,,0.00,0.0,WUHU216DAVISVP2,2013-01-25 03:15:00,
2013-01-24 22:20:00,18.9,3.2,30.42,West,278,3.1,14.0,50,0.00,,,0.00,0.0,WUHU216DAVISVP2,2013-01-25 03:20:00,
2013-01-24 22:25:00,18.9,3.2,30.42,NW,304,6.0,14.0,50,0.00,,,0.00,0.0,WUHU216DAVISVP2,2013-01-25 03:25:00,
2013-01-24 22:31:00,18.9,2.8,30.43,WNW,284,5.1,13.0,49,0.00,,,0.00,0.0,WUHU216DAVISVP2,2013-01-25 03:31:00,
2013-01-24 22:37:00,18.9,2.8,30.43,West,281,4.7,14.0,49,0.00,,,0.00,0.0,WUHU216DAVISVP2,2013-01-25 03:37:00,
2013-01-24 22:42:00,18.8,2.7,30.43,West,275,5.5,14.0,49,0.00,,,0.00,0.0,WUHU216DAVISVP2,2013-01-25 03:42:00,
2013-01-24 22:47:00,18.8,3.2,30.43,West,278,5.0,14.0,50,0.00,,,0.00,0.0,WUHU216DAVISVP2,2013-01-25 03:47:00,
2013-01-24 22:52:00,18.8,2.7,30.43,WSW,251,6.0,16.0,49,0.00,,,0.00,0.0,WUHU216DAVISVP2,2013-01-25 03:52:00,
2013-01-24 22:57:00,18.7,2.6,30.43,WNW,299,5.0,16.0,49,0.00,,,0.00,0.0,WUHU216DAVISVP2,2013-01-25 03:57:00,
2013-01-24 23:02:00,18.7,3.1,30.43,West,272,5.3,16.0,50,0.00,,,0.00,0.0,WUHU216DAVISVP2,2013-01-25 04:02:00,
2013-01-24 23:07:00,18.6,3.0,30.43,West,277,5.0,16.0,50,0.00,,,0.00,0.0,WUHU216DAVISVP2,2013-01-25 04:07:00,
2013-01-24 23:12:00,18.5,2.9,30.44,West,259,7.0,10.0,50,0.00,,,0.00,0.0,WUHU216DAVISVP2,2013-01-25 04:12:00,
2013-01-24 23:17:00,18.4,2.8,30.43,West,279,4.1,11.0,50,0.00,,,0.00,0.0,WUHU216DAVISVP2,2013-01-25 04:17:00,
2013-01-24 23:22:00,18.3,2.7,30.43,WNW,298,6.7,13.0,50,0.00,,,0.00,0.0,WUHU216DAVISVP2,2013-01-25 04:22:00,
2013-01-24 23:27:00,18.3,2.7,30.44,West,275,4.9,13.0,50,0.00,,,0.00,0.0,WUHU216DAVISVP2,2013-01-25 04:27:00,
2013-01-24 23:32:00,18.2,3.0,30.44,WNW,287,2.4,13.0,51,0.00,,,0.00,0.0,WUHU216DAVISVP2,2013-01-25 04:32:00,
2013-01-24 23:37:00,18.0,2.9,30.44,WNW,283,2.4,13.0,51,0.00,,,0.00,0.0,WUHU216DAVISVP2,2013-01-25 04:37:00,
2013-01-24 23:42:00,18.0,2.9,30.44,West,279,4.6,12.0,51,0.00,,,0.00,0.0,WUHU216DAVISVP2,2013-01-25 04:42:00,
2013-01-24 23:47:00,17.9,2.8,30.44,WSW,250,5.0,9.0,51,0.00,,,0.00,0.0,WUHU216DAVISVP2,2013-01-25 04:47:00,
2013-01-24 23:52:00,17.9,3.2,30.44,West,269,4.7,11.0,52,0.00,,,0.00,0.0,WUHU216DAVISVP2,2013-01-25 04:52:00,
2013-01-24 23:57:00,17.8,3.1,30.44,WNW,286,6.0,11.0,52,0.00,,,0.00,0.0,WUHU216DAVISVP2,2013-01-25 04:57:00,